createdAt,value
2022-09-14T00:00:15.422Z,98536.72
2022-09-14T00:06:17.421Z,98546.25
2022-09-14T00:12:19.820Z,98527.38
2022-09-14T00:18:21.708Z,98530.44
2022-09-14T00:24:26.607Z,98533.09
2022-09-14T00:30:28.624Z,98515.81
2022-09-14T00:36:32.450Z,98503.38
2022-09-14T00:42:34.358Z,98481.91
2022-09-14T00:48:36.315Z,98492.44
2022-09-14T00:54:46.631Z,98489.91
2022-09-14T01:00:48.637Z,98478.19
2022-09-14T01:07:02.918Z,98479.09
2022-09-14T01:13:32.605Z,98475.59
2022-09-14T01:20:19.483Z,98502.19
2022-09-14T01:26:47.257Z,98468.25
2022-09-14T01:33:13.169Z,98469.50
2022-09-14T01:39:17.593Z,98456.28
2022-09-14T01:45:22.581Z,98455.53
2022-09-14T01:51:37.916Z,98451.69
2022-09-14T01:57:46.280Z,98447.28
2022-09-14T02:04:01.611Z,98442.72
2022-09-14T02:10:09.193Z,98427.78
2022-09-14T02:16:11.263Z,98436.38
2022-09-14T02:22:13.609Z,98439.88
2022-09-14T02:28:16.431Z,98444.94
2022-09-14T02:34:37.214Z,98429.16
2022-09-14T02:41:00.174Z,98429.16
2022-09-14T02:47:15.064Z,98423.81
2022-09-14T02:53:35.799Z,98424.88
2022-09-14T02:59:37.853Z,98418.25
2022-09-14T03:05:40.226Z,98412.06
2022-09-14T03:11:42.185Z,98403.97
2022-09-14T03:17:49.098Z,98384.63
2022-09-14T03:23:55.083Z,98376.91
2022-09-14T03:29:57.017Z,98377.78
2022-09-14T03:35:59.604Z,98372.69
2022-09-14T03:42:01.531Z,98379.28
2022-09-14T03:48:03.555Z,98369.50
2022-09-14T03:54:05.504Z,98367.84
2022-09-14T04:00:09.112Z,98368.00
2022-09-14T04:06:11.569Z,98358.00
2022-09-14T04:12:13.524Z,98355.84
2022-09-14T04:18:15.390Z,98356.00
2022-09-14T04:24:18.006Z,98360.34
2022-09-14T04:30:20.294Z,98356.00
2022-09-14T04:36:25.999Z,98357.38
2022-09-14T04:42:29.633Z,98359.38
2022-09-14T04:48:33.739Z,98353.53
2022-09-14T04:54:35.724Z,98355.88
2022-09-14T05:00:37.660Z,98352.00
2022-09-14T05:06:42.186Z,98346.97
2022-09-14T05:12:44.120Z,98346.41
2022-09-14T05:18:46.916Z,98332.44
2022-09-14T05:24:48.850Z,98335.44
2022-09-14T05:30:50.803Z,98337.94
2022-09-14T05:36:52.765Z,98330.44
2022-09-14T05:42:54.666Z,98316.78
2022-09-14T05:48:56.642Z,98328.53
2022-09-14T05:54:58.518Z,98322.88
2022-09-14T06:01:17.950Z,98323.13
2022-09-14T06:07:19.970Z,98320.28
2022-09-14T06:13:23.387Z,98318.69
2022-09-14T06:19:25.292Z,98322.47
2022-09-14T06:25:28.136Z,98322.91
2022-09-14T06:31:30.115Z,98328.88
2022-09-14T06:37:32.015Z,98322.34
2022-09-14T06:43:37.584Z,98323.69
2022-09-14T06:49:39.522Z,98322.88
2022-09-14T06:55:41.448Z,98323.97
2022-09-14T07:08:00.094Z,98335.00
2022-09-14T07:14:02.273Z,98341.09
2022-09-14T07:32:35.187Z,98322.16
2022-09-14T07:38:51.711Z,98322.72
2022-09-14T07:51:10.667Z,98312.53
2022-09-14T07:57:12.574Z,98307.19
2022-09-14T08:03:14.473Z,98312.59
2022-09-14T08:09:16.392Z,98310.97
2022-09-14T08:15:28.238Z,98310.63
2022-09-14T08:21:32.907Z,98307.03
2022-09-14T08:27:34.776Z,98299.81
2022-09-14T08:33:41.542Z,98307.19
2022-09-14T08:39:45.356Z,98302.63
2022-09-14T08:45:50.771Z,98302.09
2022-09-14T08:51:52.987Z,98288.56
2022-09-14T08:58:09.852Z,98296.22
2022-09-14T09:04:20.405Z,98295.66
2022-09-14T09:10:25.665Z,98302.75
2022-09-14T09:16:28.511Z,98298.94
2022-09-14T09:22:45.332Z,98297.59
2022-09-14T09:28:54.379Z,98290.56
2022-09-14T09:34:56.309Z,98293.84
2022-09-14T09:47:07.407Z,98278.94
2022-09-14T09:53:17.245Z,98283.47
2022-09-14T09:59:29.322Z,98280.22
2022-09-14T10:05:33.071Z,98293.81
2022-09-14T10:11:38.954Z,98291.41
2022-09-14T10:17:41.304Z,98288.94
2022-09-14T10:23:44.401Z,98273.75
2022-09-14T10:29:50.008Z,98274.78
2022-09-14T10:42:39.063Z,98267.09
2022-09-14T10:49:18.330Z,98286.47
2022-09-14T10:55:43.811Z,98284.28
2022-09-14T11:02:30.701Z,98282.97
2022-09-14T11:08:48.307Z,98284.59
2022-09-14T11:33:31.397Z,98255.00
2022-09-14T11:39:43.146Z,98240.09
2022-09-14T11:45:58.883Z,98245.78
2022-09-14T11:52:12.336Z,98225.47
2022-09-14T11:58:26.130Z,98223.03
2022-09-14T12:04:28.038Z,98217.56
2022-09-14T12:10:30.312Z,98228.38
2022-09-14T12:16:34.626Z,98224.69
2022-09-14T12:22:38.104Z,98221.94
2022-09-14T12:28:48.399Z,98226.28
2022-09-14T12:35:43.366Z,98230.38
2022-09-14T12:41:48.143Z,98228.19
2022-09-14T12:47:51.834Z,98221.66
2022-09-14T12:54:08.409Z,98222.25
2022-09-14T13:00:19.912Z,98223.03
2022-09-14T13:06:24.070Z,98210.31
2022-09-14T13:12:43.199Z,98205.41
2022-09-14T13:18:45.111Z,98208.41
2022-09-14T13:24:49.031Z,98212.16
2022-09-14T13:30:59.893Z,98201.31
2022-09-14T13:37:02.602Z,98189.88
2022-09-14T13:43:04.834Z,98186.13
2022-09-14T13:49:07.769Z,98190.72
2022-09-14T13:55:25.672Z,98173.56
2022-09-14T14:01:28.967Z,98178.69
2022-09-14T14:07:36.349Z,98173.81
2022-09-14T14:13:38.594Z,98170.47
2022-09-14T14:19:40.738Z,98174.44
2022-09-14T14:25:55.191Z,98171.47
2022-09-14T14:31:57.239Z,98164.97
2022-09-14T14:37:59.455Z,98151.34
2022-09-14T14:44:01.676Z,98136.50
2022-09-14T14:50:04.008Z,98140.03
2022-09-14T14:56:06.279Z,98131.38
2022-09-14T15:02:09.589Z,98112.16
2022-09-14T15:08:14.458Z,98128.38
2022-09-14T15:14:21.336Z,98108.91
2022-09-14T15:20:26.242Z,98100.78
2022-09-14T15:26:28.162Z,98100.78
2022-09-14T15:32:30.215Z,98111.09
2022-09-14T15:38:32.146Z,98100.53
2022-09-14T15:44:34.068Z,98105.16
2022-09-14T15:50:40.288Z,98107.59
2022-09-14T15:56:42.198Z,98107.34
2022-09-14T16:02:44.190Z,98098.13
2022-09-14T16:08:46.084Z,98085.94
2022-09-14T16:14:47.986Z,98089.72
2022-09-14T16:20:49.895Z,98099.22
2022-09-14T16:26:52.763Z,98100.00
2022-09-14T16:32:54.611Z,98098.59
2022-09-14T16:38:59.680Z,98085.34
2022-09-14T16:45:01.795Z,98105.91
2022-09-14T16:51:04.155Z,98117.25
2022-09-14T16:57:06.064Z,98124.63
2022-09-14T17:03:07.931Z,98103.97
2022-09-14T17:09:28.643Z,98093.06
2022-09-14T17:15:31.093Z,98091.41
2022-09-14T17:21:39.124Z,98090.81
2022-09-14T17:27:40.990Z,98087.47
2022-09-14T17:33:43.145Z,98085.25
2022-09-14T17:39:45.067Z,98064.28
2022-09-14T17:45:56.502Z,98085.31
2022-09-14T17:51:58.354Z,98094.78
2022-09-14T17:58:00.214Z,98086.66
2022-09-14T18:04:06.672Z,98084.44
2022-09-14T18:10:08.782Z,98084.94
2022-09-14T18:16:11.452Z,98083.81
2022-09-14T18:22:15.640Z,98085.38
2022-09-14T18:28:17.608Z,98090.91
2022-09-14T18:34:21.298Z,98101.06
2022-09-14T18:40:24.215Z,98106.69
2022-09-14T18:46:28.430Z,98111.03
2022-09-14T18:52:30.608Z,98114.25
2022-09-14T18:58:35.302Z,98116.44
2022-09-14T19:04:38.402Z,98112.19
2022-09-14T19:10:40.697Z,98121.44
2022-09-14T19:16:42.765Z,98130.13
2022-09-14T19:22:44.658Z,98129.25
2022-09-14T19:28:46.993Z,98137.31
2022-09-14T19:34:49.530Z,98150.25
2022-09-14T19:40:52.965Z,98168.63
2022-09-14T19:46:55.889Z,98155.44
2022-09-14T19:53:00.230Z,98164.34
2022-09-14T19:59:07.377Z,98180.16
2022-09-14T20:05:10.590Z,98170.09
2022-09-14T20:11:19.743Z,98183.28
2022-09-14T20:17:22.327Z,98181.44
2022-09-14T20:23:24.197Z,98179.34
2022-09-14T20:29:30.081Z,98171.53
2022-09-14T20:35:32.287Z,98178.75
2022-09-14T20:41:36.027Z,98169.84
2022-09-14T20:47:37.947Z,98164.22
2022-09-14T20:53:42.499Z,98165.53
2022-09-14T20:59:44.333Z,98173.56
2022-09-14T21:05:46.197Z,98174.63
2022-09-14T21:11:48.265Z,98185.53
2022-09-14T21:17:50.130Z,98180.09
2022-09-14T21:23:53.360Z,98189.06
2022-09-14T21:29:55.194Z,98185.03
2022-09-14T21:36:10.479Z,98187.59
2022-09-14T21:42:12.343Z,98181.06
2022-09-14T21:48:14.212Z,98185.06
2022-09-14T21:54:16.517Z,98193.88
2022-09-14T22:00:18.882Z,98186.09
2022-09-14T22:06:25.058Z,98181.97
2022-09-14T22:12:26.903Z,98186.75
2022-09-14T22:18:28.743Z,98183.25
2022-09-14T22:24:38.112Z,98172.66
2022-09-14T22:31:08.055Z,98183.03
2022-09-14T22:37:10.065Z,98187.28
2022-09-14T22:43:11.934Z,98184.00
2022-09-14T22:49:13.799Z,98184.91
2022-09-14T22:55:15.767Z,98179.50
2022-09-14T23:01:29.479Z,98178.19
2022-09-14T23:07:31.830Z,98194.00
2022-09-14T23:13:38.605Z,98184.28
2022-09-14T23:19:40.659Z,98192.84
2022-09-14T23:25:42.541Z,98201.91
2022-09-14T23:31:44.632Z,98197.25
2022-09-14T23:37:46.578Z,98185.09
2022-09-14T23:43:48.640Z,98203.38
2022-09-14T23:49:50.532Z,98208.53
2022-09-14T23:55:53.352Z,98209.69
